Terminal Aerodrome Forecast
Issued by NWS

Home | Current Version | Previous Version | Graphics & Text | Print | Product List | Glossary On
Versions: 1 2 3 4 5 6 7 8 9 10 11 12 13 14 15 16 17 18 19 20 21 22 23 24 25
000
FTUS45 KGGW 070401 AAA
TAFGDV
TAF AMD
KGDV 070401Z 0704/0724 28031G43KT P6SM SCT070 BKN100
     FM070530 30030G42KT 2SM -SN BLSN BKN025
     FM070600 30023G33KT P6SM BKN080
     FM071600 31030G43KT P6SM SCT025 SCT050
      AMD LTD TO CLD VIS AND WIND=

USA.gov is the U.S. government's official web portal to all federal, state and local government web resources and services.